• Join FlightAware (Why Join?)
  • Login
  • US Flag 
05:47PM EDT


 

Airport Tracker/Info


-or-


 

Live Flight TrackerFlight Track Log ✈ FLG3862 ✈ 20-Apr-2013 ✈ KDTW - KBTV

Flight Track Log - Related Links

Times and Time Zones

All times are in EDT time to prevent confusion due to time zone crossing. See the FLG3862 flight status page for this flight to view local times or setup timezone preferences in your user account.

Time Position Orientation Groundspeed Altitude Reporting Facility
EDT Latitude Longitude Course Direction KTS MPH feet Rate Location/Type
10:55AM 42.2017 -83.3553 94° East 152 175 1,400  Level Cleveland Center
10:55AM 42.1683 -83.3483 171° South 204 235 2,700 1,980 Climbing Cleveland Center
10:57AM 42.0939 -83.3256 167° South 248 285 5,300 2,100 Climbing Cleveland Center
10:57AM 42.0728 -83.2489 110° East 287 330 6,800 2,040 Climbing Cleveland Center
10:58AM 42.3244 -82.6730 82° East  Level FlightAware Approximate
10:58AM 42.0831 -83.1628 81° East 306 352 8,900  Level Cleveland Center
10:59AM 42.3500 -82.5027 90° East  Level FlightAware Approximate
10:59AM 42.1269 -83.0608 60° Northeast 294 338 10,900  Level Cleveland Center
11:00AM 42.3631 -82.3350 94° East  Level FlightAware Approximate
11:00AM 42.1733 -82.9450 62° Northeast 317 365 12,600  Level Cleveland Center
11:01AM 42.2239 -82.8150 62° Northeast 352 405 14,100 1,500 Climbing Cleveland Center
11:02AM 42.2764 -82.6850 61° Northeast 375 432 15,600 1,500 Climbing Cleveland Center
11:03AM 42.3308 -82.5492 61° Northeast 389 448 17,100 1,380 Climbing Cleveland Center
11:04AM 42.3686 -82.4014 71° East 401 461 18,400 1,380 Climbing Cleveland Center
11:05AM 42.3606 -82.2439 94° East 401 461 19,900 1,500 Climbing Cleveland Center
11:06AM 42.3525 -82.0833 94° East 419 482 21,400 1,200 Climbing Cleveland Center
11:07AM 42.3461 -81.9175 93° East 426 490 22,400 900 Climbing Cleveland Center
11:08AM 42.3397 -81.7517 93° East 438 504 23,200 600 Climbing Cleveland Center
11:09AM 42.3289 -81.5633 94° East 447 514 23,700 480 Climbing Cleveland Center
11:10AM 42.3219 -81.3892 93° East 461 531 24,200 480 Climbing Cleveland Center
11:11AM 42.3125 -81.2064 94° East 474 545 24,700 480 Climbing Cleveland Center
11:12AM 42.3031 -81.0267 94° East 483 556 25,200 480 Climbing Cleveland Center
11:13AM 42.2953 -80.8414 93° East 488 562 25,700 600 Climbing Cleveland Center
11:14AM 42.2831 -80.6589 95° East 488 562 26,400 660 Climbing Cleveland Center
11:15AM 42.2747 -80.4794 94° East 481 554 27,100 600 Climbing Cleveland Center
11:16AM 42.2661 -80.3167 94° East 481 554 27,700 600 Climbing Cleveland Center
11:17AM 42.2550 -80.1372 95° East 481 554 28,400 600 Climbing Cleveland Center
11:18AM 42.2417 -79.9381 95° East 481 554 29,000 300 Climbing Cleveland Center
11:19AM 42.2300 -79.7558 95° East 481 554 29,000  Level Cleveland Center
11:20AM 42.2181 -79.5711 95° East 481 554 29,000  Level Cleveland Center
11:21AM 42.2058 -79.3833 95° East 486 559 29,000  Level Cleveland Center
11:22AM 42.1933 -79.1931 95° East 498 573 29,000  Level Cleveland Center
11:23AM 42.2286 -79.0044 76° East 498 573 29,000  Level Cleveland Center
11:24AM 42.2908 -78.8428 62° Northeast 505 581 29,000  Level Cleveland Center
11:25AM 42.3611 -78.6694 61° Northeast 514 592 29,000  Level Cleveland Center
11:26AM 42.4411 -78.4814 60° Northeast 519 597 29,000  Level Cleveland Center
11:27AM 42.5128 -78.3072 61° Northeast 519 597 29,000  Level Cleveland Center
11:28AM 42.5844 -78.1353 60° Northeast 525 604 29,000  Level Cleveland Center
11:29AM 42.6575 -77.9603 60° Northeast 530 610 29,000  Level Cleveland Center
11:30AM 42.7286 -77.7822 61° Northeast 530 610 29,000  Level Cleveland Center
11:31AM 42.7992 -77.6092 61° Northeast 530 610 29,000  Level Cleveland Center
11:32AM 42.8697 -77.4358 61° Northeast 530 610 29,000  Level Cleveland Center
11:34AM 42.9867 -77.1469 61° Northeast 519 597 29,000  Level Boston Center
11:35AM 43.0564 -76.9703 62° Northeast 519 597 29,000  Level Boston Center
11:36AM 43.1283 -76.7878 62° Northeast 524 603 29,000  Level Boston Center
11:37AM 43.1947 -76.6244 61° Northeast 524 603 29,000  Level Boston Center
11:38AM 43.2658 -76.4439 62° Northeast 529 609 29,000  Level Boston Center
11:39AM 43.3392 -76.2572 62° Northeast 535 616 29,000  Level Boston Center
11:40AM 43.4117 -76.0731 61° Northeast 541 623 29,000  Level Boston Center
11:41AM 43.4822 -75.8828 63° Northeast 546 628 29,000  Level Boston Center
11:42AM 43.5525 -75.6947 63° Northeast 546 628 29,000  Level Boston Center
11:43AM 43.6311 -75.4894 62° Northeast 546 628 29,000  Level Boston Center
11:44AM 43.7006 -75.3006 63° Northeast 546 628 29,000 -540 Level Boston Center
11:45AM 43.7719 -75.1056 63° Northeast 546 628 28,000 -1,620 Descending Boston Center
11:46AM 43.8408 -74.9186 63° Northeast 546 628 25,800 -2,160 Descending Boston Center
11:47AM 43.9114 -74.7311 62° Northeast 546 628 23,700 -2,100 Descending Boston Center
11:48AM 43.9772 -74.5492 63° Northeast 546 628 21,600 -2,100 Descending Boston Center
11:49AM 44.0386 -74.3781 63° Northeast 518 596 19,600 -2,100 Descending Boston Center
11:50AM 44.0956 -74.2150 64° Northeast 487 560 17,500 -2,100 Descending Boston Center
11:51AM 44.1497 -74.0633 63° Northeast 454 522 15,500 -1,800 Descending Boston Center
11:52AM 44.1911 -73.9514 63° Northeast 422 486 13,900 -1,920 Descending Boston Center
11:53AM 44.2450 -73.8022 63° Northeast 403 464 11,700 -1,800 Descending Boston Center
11:54AM 44.2858 -73.6814 65° Northeast 360 414 10,300 -1,680 Descending Boston Center
11:55AM 44.3267 -73.5689 63° Northeast 332 382 8,400 -1,800 Descending Boston Center
11:56AM 44.3611 -73.4564 67° East 308 354 6,800 -1,800 Descending Boston Center
11:57AM 44.3828 -73.3522 74° East 293 337 4,800 -1,440 Descending Boston Center
11:58AM 44.4022 -73.2508 75° East 272 313 4,000 -420 Descending Boston Center
11:59AM 44.3944 -73.1664 97° East 231 266 4,000  Level Boston Center